Time;durP1;ratioP1;P1;durP2;ratioP2;P2;SDS_P1;SDS_P2;PMS_P1;PMS_P2;Temp;Humidity;BMP_temperature;BMP_pressure;BME280_temperature;BME280_humidity;BME280_pressure;Samples;Min_cycle;Max_cycle;Signal;HPM_P1;HPM_P2
2024/03/01 00:01:21;;;;;;;15.50;7.43;;;;;;;;;;5055308;28;20029;-57
2024/03/01 00:03:46;;;;;;;13.43;7.63;;;;;;;;;;5055409;28;20266;-57
2024/03/01 00:06:13;;;;;;;18.63;7.60;;;;;;;;;;5055353;28;20257;-59
2024/03/01 00:08:39;;;;;;;16.07;8.07;;;;;;;;;;5056352;28;20040;-59
2024/03/01 00:11:04;;;;;;;13.53;6.80;;;;;;;;;;5054901;28;20270;-55
2024/03/01 00:13:30;;;;;;;12.30;7.20;;;;;;;;;;5055602;28;20159;-61
2024/03/01 00:15:55;;;;;;;23.65;7.25;;;;;;;;;;5054912;28;20034;-57
2024/03/01 00:18:21;;;;;;;16.17;6.57;;;;;;;;;;5056069;28;20037;-57
2024/03/01 00:20:46;;;;;;;16.10;7.87;;;;;;;;;;5061283;28;20033;-57
2024/03/01 00:23:12;;;;;;;16.27;6.30;;;;;;;;;;5055119;28;20267;-59
2024/03/01 00:25:37;;;;;;;17.30;6.73;;;;;;;;;;5053602;28;20029;-58
2024/03/01 00:28:03;;;;;;;15.18;7.68;;;;;;;;;;5056115;28;20041;-59
2024/03/01 00:30:29;;;;;;;16.25;6.97;;;;;;;;;;5060528;28;20033;-57
2024/03/01 00:32:55;;;;;;;14.35;6.35;;;;;;;;;;5054866;28;20034;-56
2024/03/01 00:35:20;;;;;;;13.27;6.60;;;;;;;;;;5054676;28;20231;-58
2024/03/01 00:37:46;;;;;;;13.37;7.20;;;;;;;;;;5054778;28;20286;-60
2024/03/01 00:40:11;;;;;;;14.10;6.30;;;;;;;;;;5056396;28;20092;-59
2024/03/01 00:42:37;;;;;;;13.85;7.18;;;;;;;;;;5052049;28;20025;-58
2024/03/01 00:45:02;;;;;;;16.30;6.87;;;;;;;;;;5058234;28;20033;-57
2024/03/01 00:47:28;;;;;;;15.43;6.47;;;;;;;;;;5056263;28;20042;-59
2024/03/01 00:49:53;;;;;;;17.08;6.47;;;;;;;;;;5050730;28;20041;-59
2024/03/01 00:52:19;;;;;;;14.38;6.63;;;;;;;;;;5054237;28;20064;-58
2024/03/01 00:54:44;;;;;;;13.00;6.85;;;;;;;;;;5054476;28;20060;-58
2024/03/01 00:57:09;;;;;;;14.53;6.87;;;;;;;;;;5055733;28;20037;-59
2024/03/01 00:59:35;;;;;;;11.88;6.40;;;;;;;;;;5054514;28;20033;-59
2024/03/01 01:02:00;;;;;;;14.40;6.67;;;;;;;;;;5040608;28;20041;-59
2024/03/01 01:04:26;;;;;;;12.60;5.97;;;;;;;;;;5038221;28;20022;-60
2024/03/01 01:06:52;;;;;;;11.37;5.97;;;;;;;;;;5051324;28;20041;-58
2024/03/01 01:09:17;;;;;;;15.87;7.50;;;;;;;;;;5041826;28;20281;-59
2024/03/01 01:11:43;;;;;;;13.32;6.85;;;;;;;;;;5061745;28;20029;-56
2024/03/01 01:14:08;;;;;;;14.02;6.18;;;;;;;;;;5054575;28;20039;-58
2024/03/01 01:16:34;;;;;;;14.95;7.03;;;;;;;;;;5053860;28;20044;-59
2024/03/01 01:18:59;;;;;;;12.77;5.57;;;;;;;;;;5061371;28;20029;-56
2024/03/01 01:21:25;;;;;;;10.70;5.43;;;;;;;;;;5061879;28;20037;-59
2024/03/01 01:23:51;;;;;;;12.87;6.50;;;;;;;;;;5056400;28;20045;-58
2024/03/01 01:26:17;;;;;;;10.73;5.95;;;;;;;;;;5054173;28;20120;-58
2024/03/01 01:28:43;;;;;;;11.65;6.18;;;;;;;;;;5054172;28;20029;-57
2024/03/01 01:31:08;;;;;;;11.43;5.78;;;;;;;;;;5054096;28;20032;-57
2024/03/01 01:33:34;;;;;;;13.30;6.30;;;;;;;;;;5054177;28;20048;-61
2024/03/01 01:35:59;;;;;;;15.10;5.73;;;;;;;;;;5054839;28;20428;-59
2024/03/01 01:38:24;;;;;;;14.57;6.40;;;;;;;;;;5062735;28;20029;-60
2024/03/01 01:40:51;;;;;;;12.63;5.37;;;;;;;;;;5057666;28;20049;-57
2024/03/01 01:43:17;;;;;;;12.90;6.40;;;;;;;;;;5057935;28;20029;-60
2024/03/01 01:45:42;;;;;;;16.70;7.77;;;;;;;;;;5057503;28;20271;-60
2024/03/01 01:48:08;;;;;;;11.65;6.13;;;;;;;;;;5059521;28;20036;-59
2024/03/01 01:50:34;;;;;;;10.18;5.28;;;;;;;;;;5057348;28;20044;-59
2024/03/01 01:53:01;;;;;;;14.13;6.68;;;;;;;;;;5058023;28;20574;-59
2024/03/01 01:55:26;;;;;;;11.17;6.03;;;;;;;;;;5061338;28;20037;-58
2024/03/01 01:57:52;;;;;;;16.07;6.33;;;;;;;;;;5057805;28;20297;-59
2024/03/01 02:00:17;;;;;;;10.18;5.85;;;;;;;;;;5057682;28;20036;-60
2024/03/01 02:02:43;;;;;;;14.15;5.97;;;;;;;;;;5057628;28;20097;-59
2024/03/01 02:05:09;;;;;;;15.90;6.45;;;;;;;;;;5057854;28;20040;-59
2024/03/01 02:07:36;;;;;;;13.87;6.67;;;;;;;;;;5057534;28;20037;-58
2024/03/01 02:10:09;;;;;;;11.93;5.60;;;;;;;;;;5064824;28;20278;-59
2024/03/01 02:12:35;;;;;;;12.83;6.73;;;;;;;;;;5061642;28;20289;-60
2024/03/01 02:15:01;;;;;;;11.80;5.77;;;;;;;;;;5057761;28;20266;-60
2024/03/01 02:17:27;;;;;;;12.23;5.40;;;;;;;;;;5057529;28;20350;-59
2024/03/01 02:19:52;;;;;;;16.20;6.83;;;;;;;;;;5057143;28;20274;-59
2024/03/01 02:22:21;;;;;;;15.60;6.60;;;;;;;;;;5057349;28;20029;-60
2024/03/01 02:24:48;;;;;;;13.43;6.03;;;;;;;;;;5056500;28;20030;-59
2024/03/01 02:27:14;;;;;;;12.38;6.32;;;;;;;;;;5057185;28;20261;-60
2024/03/01 02:29:39;;;;;;;11.45;6.05;;;;;;;;;;5058341;28;20029;-58
2024/03/01 02:32:05;;;;;;;11.03;5.37;;;;;;;;;;5057166;28;20040;-59
2024/03/01 02:34:30;;;;;;;10.70;5.72;;;;;;;;;;5056268;28;20457;-59
2024/03/01 02:36:56;;;;;;;12.90;5.90;;;;;;;;;;5056695;28;20033;-59
2024/03/01 02:39:24;;;;;;;11.97;5.90;;;;;;;;;;5059293;28;20034;-57
2024/03/01 02:41:50;;;;;;;13.60;7.13;;;;;;;;;;5057704;28;20060;-60
2024/03/01 02:44:16;;;;;;;12.53;5.93;;;;;;;;;;5058155;28;20267;-58
2024/03/01 02:46:42;;;;;;;14.25;5.93;;;;;;;;;;5059669;28;20033;-56
2024/03/01 02:49:07;;;;;;;12.25;6.07;;;;;;;;;;5058870;28;20060;-59
2024/03/01 02:51:32;;;;;;;11.95;6.50;;;;;;;;;;5056580;28;20025;-59
2024/03/01 02:53:58;;;;;;;13.93;6.32;;;;;;;;;;5057111;28;20067;-56
2024/03/01 02:56:24;;;;;;;11.43;5.68;;;;;;;;;;5056594;28;20051;-59
2024/03/01 02:58:50;;;;;;;14.10;6.77;;;;;;;;;;5065898;28;20064;-59
2024/03/01 03:01:16;;;;;;;11.83;5.43;;;;;;;;;;5056425;28;20279;-57
2024/03/01 03:03:41;;;;;;;12.93;5.40;;;;;;;;;;5047036;28;20029;-59
2024/03/01 03:06:07;;;;;;;12.43;6.23;;;;;;;;;;5056542;28;20044;-59
2024/03/01 03:08:32;;;;;;;16.30;6.78;;;;;;;;;;5058821;28;20026;-58
2024/03/01 03:10:58;;;;;;;11.85;6.13;;;;;;;;;;5059742;28;20644;-58
2024/03/01 03:13:23;;;;;;;10.90;5.80;;;;;;;;;;5056524;28;20025;-59
2024/03/01 03:15:49;;;;;;;12.50;5.93;;;;;;;;;;5056256;28;20290;-59
2024/03/01 03:18:14;;;;;;;12.70;6.47;;;;;;;;;;5056330;28;20274;-60
2024/03/01 03:20:40;;;;;;;13.00;5.28;;;;;;;;;;5067177;28;20156;-59
2024/03/01 03:23:05;;;;;;;13.37;6.33;;;;;;;;;;5056406;28;20052;-60
2024/03/01 03:25:31;;;;;;;13.63;6.32;;;;;;;;;;5057959;28;20033;-59
2024/03/01 03:27:56;;;;;;;12.30;6.22;;;;;;;;;;5071408;28;20036;-60
2024/03/01 03:30:22;;;;;;;11.20;6.30;;;;;;;;;;5072096;28;20033;-60
2024/03/01 03:32:48;;;;;;;9.37;5.77;;;;;;;;;;5056276;28;20326;-58
2024/03/01 03:35:13;;;;;;;12.68;6.07;;;;;;;;;;5055922;28;20029;-57
2024/03/01 03:37:39;;;;;;;13.02;6.47;;;;;;;;;;5055961;28;20041;-60
2024/03/01 03:40:14;;;;;;;12.83;6.03;;;;;;;;;;5057130;28;20064;-61
2024/03/01 03:42:40;;;;;;;11.07;5.40;;;;;;;;;;5055758;28;20098;-59
2024/03/01 03:45:06;;;;;;;7.80;4.00;;;;;;;;;;5055663;28;20269;-58
2024/03/01 03:47:32;;;;;;;10.32;4.57;;;;;;;;;;5055848;28;20065;-60
2024/03/01 03:49:58;;;;;;;10.77;5.30;;;;;;;;;;5055673;28;20060;-59
2024/03/01 03:52:24;;;;;;;14.48;7.00;;;;;;;;;;5055037;28;20041;-61
2024/03/01 03:54:50;;;;;;;15.00;7.00;;;;;;;;;;5055406;28;20029;-59
2024/03/01 03:57:16;;;;;;;12.67;5.70;;;;;;;;;;5055498;28;20102;-60
2024/03/01 03:59:41;;;;;;;7.38;4.20;;;;;;;;;;5054982;28;20029;-61
2024/03/01 04:02:07;;;;;;;6.90;3.38;;;;;;;;;;5054316;28;20025;-59
2024/03/01 04:04:32;;;;;;;7.90;3.67;;;;;;;;;;5055448;28;20030;-58
2024/03/01 04:06:58;;;;;;;7.30;3.63;;;;;;;;;;5055623;28;20289;-59
2024/03/01 04:09:24;;;;;;;12.00;4.03;;;;;;;;;;5056409;28;20037;-59
2024/03/01 04:11:49;;;;;;;12.05;4.75;;;;;;;;;;5061766;28;20048;-60
2024/03/01 04:14:15;;;;;;;9.30;4.57;;;;;;;;;;5057894;28;20053;-61
2024/03/01 04:16:40;;;;;;;7.57;3.77;;;;;;;;;;5061318;28;20289;-59
2024/03/01 04:19:08;;;;;;;15.93;5.60;;;;;;;;;;5058613;28;20076;-61
2024/03/01 04:21:37;;;;;;;12.37;5.57;;;;;;;;;;5066708;28;20097;-60
2024/03/01 04:24:09;;;;;;;22.07;6.87;;;;;;;;;;5056482;28;20265;-58
2024/03/01 04:26:35;;;;;;;20.37;6.80;;;;;;;;;;5055092;28;20290;-60
2024/03/01 04:29:02;;;;;;;15.13;5.47;;;;;;;;;;5056403;28;20285;-60
2024/03/01 04:31:28;;;;;;;14.17;4.47;;;;;;;;;;5063645;28;20113;-59
2024/03/01 04:33:54;;;;;;;14.85;4.80;;;;;;;;;;5054977;28;20258;-61
2024/03/01 04:36:20;;;;;;;27.87;5.77;;;;;;;;;;5054985;28;20060;-59
2024/03/01 04:38:46;;;;;;;21.95;6.22;;;;;;;;;;5054653;28;20021;-59
2024/03/01 04:41:18;;;;;;;18.30;6.05;;;;;;;;;;5054855;28;20057;-59
2024/03/01 04:43:44;;;;;;;15.07;6.20;;;;;;;;;;5054286;28;20028;-59
2024/03/01 04:46:09;;;;;;;20.70;6.20;;;;;;;;;;5054855;28;20030;-59
2024/03/01 04:48:36;;;;;;;16.35;5.75;;;;;;;;;;5066078;28;20025;-61
2024/03/01 04:51:01;;;;;;;17.70;5.63;;;;;;;;;;5055767;28;20059;-59
2024/03/01 04:53:27;;;;;;;16.05;6.45;;;;;;;;;;5064057;28;20029;-60
2024/03/01 04:55:52;;;;;;;12.73;4.73;;;;;;;;;;5054616;28;20060;-61
2024/03/01 04:58:18;;;;;;;12.53;4.20;;;;;;;;;;5054380;28;20330;-60
2024/03/01 05:00:43;;;;;;;18.97;5.37;;;;;;;;;;5055765;28;20029;-60
2024/03/01 05:03:09;;;;;;;19.10;5.93;;;;;;;;;;5054183;28;20319;-60
2024/03/01 05:05:34;;;;;;;22.10;6.80;;;;;;;;;;5054425;28;20036;-59
2024/03/01 05:08:00;;;;;;;13.20;3.70;;;;;;;;;;5058670;28;20049;-60
2024/03/01 05:10:25;;;;;;;7.88;3.67;;;;;;;;;;5055335;28;20497;-60
2024/03/01 05:12:51;;;;;;;20.20;5.27;;;;;;;;;;5053638;28;20056;-58
2024/03/01 05:15:16;;;;;;;17.73;5.13;;;;;;;;;;5054666;28;20037;-60
2024/03/01 05:17:43;;;;;;;18.33;5.40;;;;;;;;;;5054692;28;20301;-60
2024/03/01 05:20:12;;;;;;;21.65;5.82;;;;;;;;;;5062418;28;20088;-59
2024/03/01 05:22:39;;;;;;;18.67;5.85;;;;;;;;;;5057933;28;20037;-60
2024/03/01 05:25:17;;;;;;;20.75;7.28;;;;;;;;;;5054477;28;20057;-60
2024/03/01 05:27:44;;;;;;;16.90;5.22;;;;;;;;;;5045489;28;20033;-60
2024/03/01 05:30:12;;;;;;;10.30;5.05;;;;;;;;;;5061192;28;20029;-59
2024/03/01 05:32:41;;;;;;;10.20;5.60;;;;;;;;;;5054093;28;20085;-59
2024/03/01 05:35:08;;;;;;;10.53;5.43;;;;;;;;;;5054095;28;20033;-58
2024/03/01 05:37:33;;;;;;;10.35;5.00;;;;;;;;;;5053984;28;20281;-60
2024/03/01 05:39:59;;;;;;;9.73;5.20;;;;;;;;;;5059617;28;20056;-57
2024/03/01 05:42:25;;;;;;;10.43;4.30;;;;;;;;;;5053221;28;20026;-60
2024/03/01 05:44:50;;;;;;;7.28;3.78;;;;;;;;;;5053153;28;20073;-59
2024/03/01 05:47:16;;;;;;;8.27;3.73;;;;;;;;;;5054383;28;20033;-59
2024/03/01 05:49:41;;;;;;;8.53;2.83;;;;;;;;;;5055117;28;20300;-60
2024/03/01 05:52:07;;;;;;;5.28;2.80;;;;;;;;;;5054020;28;20072;-59
2024/03/01 05:54:32;;;;;;;13.63;2.87;;;;;;;;;;5053653;28;20038;-58
2024/03/01 05:56:58;;;;;;;5.55;2.58;;;;;;;;;;5054288;28;20089;-60
2024/03/01 05:59:23;;;;;;;5.32;2.28;;;;;;;;;;5056105;28;20101;-60
2024/03/01 06:01:49;;;;;;;8.63;3.23;;;;;;;;;;5054840;28;20030;-60
2024/03/01 06:04:15;;;;;;;7.65;3.05;;;;;;;;;;5053829;28;20298;-60
2024/03/01 06:06:41;;;;;;;9.30;2.20;;;;;;;;;;5053842;28;20041;-61
2024/03/01 06:09:06;;;;;;;5.90;2.38;;;;;;;;;;5053826;28;20041;-57
2024/03/01 06:11:32;;;;;;;7.25;2.85;;;;;;;;;;5058581;28;20041;-60
2024/03/01 06:13:58;;;;;;;7.85;2.45;;;;;;;;;;5053779;28;20025;-59
2024/03/01 06:16:24;;;;;;;7.68;2.72;;;;;;;;;;5053581;28;20095;-60
2024/03/01 06:18:49;;;;;;;7.30;2.40;;;;;;;;;;5060792;28;20059;-60
2024/03/01 06:21:25;;;;;;;8.45;2.88;;;;;;;;;;5058223;28;20033;-60
2024/03/01 06:23:50;;;;;;;10.70;3.28;;;;;;;;;;5054094;28;20034;-61
2024/03/01 06:26:16;;;;;;;11.43;3.67;;;;;;;;;;5057042;28;20068;-60
2024/03/01 06:28:44;;;;;;;10.07;3.83;;;;;;;;;;5057128;28;20033;-59
2024/03/01 06:31:10;;;;;;;11.45;3.22;;;;;;;;;;5058565;28;20273;-59
2024/03/01 06:33:35;;;;;;;10.00;3.83;;;;;;;;;;5056823;28;20037;-58
2024/03/01 06:36:01;;;;;;;9.37;4.20;;;;;;;;;;5056397;28;20346;-60
2024/03/01 06:38:26;;;;;;;11.63;3.95;;;;;;;;;;5057648;28;20024;-58
2024/03/01 06:40:51;;;;;;;10.43;3.80;;;;;;;;;;5058379;28;20033;-60
2024/03/01 06:43:17;;;;;;;9.57;4.10;;;;;;;;;;5056602;28;20052;-59
2024/03/01 06:45:43;;;;;;;8.77;3.70;;;;;;;;;;5066335;28;20056;-60
2024/03/01 06:48:08;;;;;;;9.10;3.63;;;;;;;;;;5056424;28;20274;-57
2024/03/01 06:50:35;;;;;;;7.97;3.85;;;;;;;;;;5063822;28;20025;-60
2024/03/01 06:53:00;;;;;;;11.00;3.33;;;;;;;;;;5056662;28;20041;-60
2024/03/01 06:55:25;;;;;;;6.93;3.40;;;;;;;;;;5064594;28;20064;-59
2024/03/01 06:57:51;;;;;;;9.80;3.53;;;;;;;;;;5055515;28;20061;-58
2024/03/01 07:00:16;;;;;;;8.77;3.73;;;;;;;;;;5063531;28;20021;-60
2024/03/01 07:02:42;;;;;;;15.10;4.87;;;;;;;;;;5058308;28;20286;-58
2024/03/01 07:05:09;;;;;;;13.23;4.57;;;;;;;;;;5061108;28;20036;-59
2024/03/01 07:07:36;;;;;;;13.60;4.63;;;;;;;;;;5050775;28;20045;-60
2024/03/01 07:10:02;;;;;;;13.68;5.05;;;;;;;;;;5056348;28;20045;-61
2024/03/01 07:12:28;;;;;;;15.88;6.40;;;;;;;;;;5052163;28;20032;-58
2024/03/01 07:14:54;;;;;;;11.57;5.33;;;;;;;;;;5054189;28;20037;-60
2024/03/01 07:17:19;;;;;;;11.43;6.47;;;;;;;;;;5046283;28;20307;-59
2024/03/01 07:19:45;;;;;;;14.05;5.68;;;;;;;;;;5054406;28;20037;-60
2024/03/01 07:22:10;;;;;;;16.13;6.87;;;;;;;;;;5055541;28;20029;-58
2024/03/01 07:24:35;;;;;;;16.90;7.60;;;;;;;;;;5049428;28;20029;-60
2024/03/01 07:27:01;;;;;;;13.57;6.20;;;;;;;;;;5055968;28;20067;-60
2024/03/01 07:29:28;;;;;;;22.58;8.10;;;;;;;;;;5056214;28;20055;-59
2024/03/01 07:31:54;;;;;;;17.33;6.10;;;;;;;;;;5056603;28;20051;-59
2024/03/01 07:34:19;;;;;;;16.67;8.03;;;;;;;;;;5055028;28;20451;-61
2024/03/01 07:36:45;;;;;;;17.47;7.97;;;;;;;;;;5055278;28;20309;-57
2024/03/01 07:39:11;;;;;;;16.30;8.10;;;;;;;;;;5056594;28;20130;-59
2024/03/01 07:41:36;;;;;;;;;;;;;;;;;;5062378;28;20017;-59
2024/03/01 07:44:02;;;;;;;25.03;10.63;;;;;;;;;;5042949;28;19984;-60
2024/03/01 07:46:27;;;;;;;18.10;8.87;;;;;;;;;;5055454;28;20040;-60
2024/03/01 07:48:53;;;;;;;26.08;10.35;;;;;;;;;;5055532;28;20124;-59
2024/03/01 07:51:19;;;;;;;26.60;10.80;;;;;;;;;;5055456;28;20103;-59
2024/03/01 07:53:46;;;;;;;23.23;11.07;;;;;;;;;;5055316;28;20033;-59
2024/03/01 07:56:11;;;;;;;25.15;11.57;;;;;;;;;;5057218;28;20274;-59
2024/03/01 07:58:36;;;;;;;27.80;12.47;;;;;;;;;;5055088;28;20031;-59
2024/03/01 08:01:02;;;;;;;31.42;13.40;;;;;;;;;;5059233;28;20029;-59
2024/03/01 08:03:27;;;;;;;34.43;14.33;;;;;;;;;;5054617;28;20034;-61
2024/03/01 08:05:53;;;;;;;29.00;14.18;;;;;;;;;;5055090;28;20125;-58
2024/03/01 08:08:32;;;;;;;29.47;12.30;;;;;;;;;;5055200;28;20029;-60
2024/03/01 08:10:58;;;;;;;24.40;10.10;;;;;;;;;;5055166;28;20103;-59
2024/03/01 08:13:24;;;;;;;29.27;11.70;;;;;;;;;;5062982;28;20105;-58
2024/03/01 08:15:49;;;;;;;26.58;12.35;;;;;;;;;;5049811;28;20063;-60
2024/03/01 08:18:16;;;;;;;22.70;11.10;;;;;;;;;;5055277;28;20040;-60
2024/03/01 08:20:58;;;;;;;19.65;9.75;;;;;;;;;;5054803;28;20262;-57
2024/03/01 08:23:27;;;;;;;26.27;11.60;;;;;;;;;;5055066;28;20042;-58
2024/03/01 08:25:53;;;;;;;24.33;10.90;;;;;;;;;;5057561;28;20033;-61
2024/03/01 08:28:25;;;;;;;24.63;10.98;;;;;;;;;;5054573;28;20105;-61
2024/03/01 08:30:51;;;;;;;22.58;8.15;;;;;;;;;;5054356;28;20042;-59
2024/03/01 08:33:19;;;;;;;20.77;10.50;;;;;;;;;;5054862;28;20056;-58
2024/03/01 08:35:46;;;;;;;20.00;8.73;;;;;;;;;;5053991;28;20270;-60
2024/03/01 08:38:31;;;;;;;19.80;8.70;;;;;;;;;;5054835;28;20054;-59
2024/03/01 08:40:57;;;;;;;20.33;8.95;;;;;;;;;;5044644;28;20270;-56
2024/03/01 08:43:23;;;;;;;15.32;8.15;;;;;;;;;;5055363;28;20017;-58
2024/03/01 08:45:49;;;;;;;25.20;7.28;;;;;;;;;;5053830;28;20048;-60
2024/03/01 08:48:21;;;;;;;18.65;7.93;;;;;;;;;;5053667;28;20112;-59
2024/03/01 08:50:50;;;;;;;16.13;6.93;;;;;;;;;;5057369;28;20124;-60
2024/03/01 08:53:35;;;;;;;20.40;7.40;;;;;;;;;;5055108;28;20277;-60
2024/03/01 08:56:01;;;;;;;15.00;7.23;;;;;;;;;;5059202;28;20273;-60
2024/03/01 08:58:26;;;;;;;;;;;;;;;;;;5060620;28;20302;-58
2024/03/01 09:00:55;;;;;;;15.47;7.37;;;;;;;;;;5055087;28;19912;-61
2024/03/01 09:03:25;;;;;;;16.13;7.73;;;;;;;;;;5054075;28;20044;-61
2024/03/01 09:05:55;;;;;;;14.67;7.43;;;;;;;;;;5057678;28;20258;-61
2024/03/01 09:08:25;;;;;;;15.90;7.03;;;;;;;;;;5062555;28;20290;-61
2024/03/01 09:10:51;;;;;;;15.07;6.87;;;;;;;;;;5055192;28;20330;-61
2024/03/01 09:13:16;;;;;;;20.52;6.45;;;;;;;;;;5054377;28;20278;-60
2024/03/01 09:15:43;;;;;;;14.77;6.13;;;;;;;;;;5053780;28;20029;-60
2024/03/01 09:18:17;;;;;;;13.55;6.43;;;;;;;;;;5054223;28;20064;-61
2024/03/01 09:20:44;;;;;;;12.47;5.33;;;;;;;;;;5041078;28;20026;-61
2024/03/01 09:23:13;;;;;;;11.27;5.83;;;;;;;;;;5053731;28;20282;-60
2024/03/01 09:25:47;;;;;;;9.77;5.60;;;;;;;;;;5053403;28;20265;-61
2024/03/01 09:28:17;;;;;;;10.33;4.97;;;;;;;;;;5045639;28;20334;-59
2024/03/01 09:30:46;;;;;;;14.47;5.47;;;;;;;;;;5054417;28;20275;-60
2024/03/01 09:33:18;;;;;;;10.20;4.83;;;;;;;;;;5070173;28;20269;-59
2024/03/01 09:35:44;;;;;;;8.97;4.23;;;;;;;;;;5053273;28;20264;-60
2024/03/01 09:38:13;;;;;;;11.02;5.35;;;;;;;;;;5058062;28;20342;-60
2024/03/01 09:40:49;;;;;;;12.13;4.53;;;;;;;;;;5052685;28;20025;-60
2024/03/01 09:43:18;;;;;;;9.70;3.93;;;;;;;;;;5053763;28;20036;-60
2024/03/01 09:45:54;;;;;;;8.40;3.20;;;;;;;;;;5053787;28;20026;-61
2024/03/01 09:48:39;;;;;;;8.15;3.75;;;;;;;;;;5053486;28;20076;-59
2024/03/01 09:51:17;;;;;;;9.37;3.90;;;;;;;;;;5053459;28;20025;-60
2024/03/01 09:53:46;;;;;;;10.37;4.03;;;;;;;;;;5043960;28;20098;-60
2024/03/01 09:56:31;;;;;;;10.53;3.60;;;;;;;;;;5053036;28;20044;-60
2024/03/01 09:59:08;;;;;;;15.73;3.63;;;;;;;;;;5047020;28;20048;-59
2024/03/01 10:01:36;;;;;;;11.27;3.17;;;;;;;;;;5057766;28;20085;-60
2024/03/01 10:04:13;;;;;;;8.93;2.83;;;;;;;;;;5057730;28;20036;-60
2024/03/01 10:06:38;;;;;;;;;;;;;;;;;;5047194;28;20094;-59
2024/03/01 10:09:11;;;;;;;11.17;3.43;;;;;;;;;;5062854;28;19909;-60
2024/03/01 10:11:39;;;;;;;7.37;3.07;;;;;;;;;;5057528;28;20056;-59
2024/03/01 10:14:11;;;;;;;11.33;4.03;;;;;;;;;;5065336;28;20292;-60
2024/03/01 10:16:46;;;;;;;10.90;3.63;;;;;;;;;;5056857;28;20274;-60
2024/03/01 10:19:14;;;;;;;8.60;3.70;;;;;;;;;;5057086;28;20258;-59
2024/03/01 10:21:55;;;;;;;8.40;3.53;;;;;;;;;;5055033;28;20278;-60
2024/03/01 10:24:41;;;;;;;11.53;4.20;;;;;;;;;;5058952;28;20481;-61
2024/03/01 10:27:14;;;;;;;13.90;4.97;;;;;;;;;;5056131;28;20254;-60
2024/03/01 10:29:59;;;;;;;8.37;4.70;;;;;;;;;;5057130;28;20315;-61
2024/03/01 10:32:43;;;;;;;7.90;4.30;;;;;;;;;;5066463;28;20285;-59
2024/03/01 10:35:11;;;;;;;10.77;4.97;;;;;;;;;;5058102;28;20269;-60
2024/03/01 10:37:55;;;;;;;8.40;4.50;;;;;;;;;;5055488;28;20278;-59
2024/03/01 10:40:21;;;;;;;10.70;3.53;;;;;;;;;;5054589;28;20820;-60
2024/03/01 10:42:49;;;;;;;9.10;3.35;;;;;;;;;;5056698;28;20022;-60
2024/03/01 10:45:19;;;;;;;15.93;3.80;;;;;;;;;;5055360;28;20030;-60
2024/03/01 10:47:50;;;;;;;12.70;3.60;;;;;;;;;;5054815;28;20040;-60
2024/03/01 10:50:22;;;;;;;8.80;3.70;;;;;;;;;;5052504;28;20255;-60
2024/03/01 10:53:06;;;;;;;5.23;3.10;;;;;;;;;;5057457;28;20267;-60
2024/03/01 10:55:37;;;;;;;8.80;3.27;;;;;;;;;;5054849;28;20068;-60
2024/03/01 10:58:09;;;;;;;6.30;2.80;;;;;;;;;;5056036;28;20030;-61
2024/03/01 11:00:38;;;;;;;6.97;2.83;;;;;;;;;;5056417;28;20036;-60
2024/03/01 11:03:07;;;;;;;10.40;3.17;;;;;;;;;;5055443;28;20025;-61
2024/03/01 11:05:38;;;;;;;10.43;3.50;;;;;;;;;;5048158;28;20026;-60
2024/03/01 11:08:18;;;;;;;7.50;2.50;;;;;;;;;;5056153;28;20041;-61
2024/03/01 11:10:53;;;;;;;6.43;2.17;;;;;;;;;;5055564;28;20033;-60
2024/03/01 11:13:20;;;;;;;7.97;2.10;;;;;;;;;;5053710;28;20025;-60
2024/03/01 11:15:47;;;;;;;4.73;1.97;;;;;;;;;;5053333;28;20025;-60
2024/03/01 11:18:16;;;;;;;4.17;2.20;;;;;;;;;;5061848;28;20040;-60
2024/03/01 11:20:45;;;;;;;3.43;1.60;;;;;;;;;;5054302;28;20029;-61
2024/03/01 11:23:10;;;;;;;5.73;1.57;;;;;;;;;;5056028;28;20033;-61
2024/03/01 11:25:48;;;;;;;4.07;1.40;;;;;;;;;;5057539;28;20085;-61
2024/03/01 11:28:17;;;;;;;6.10;1.90;;;;;;;;;;5055561;28;20033;-60
2024/03/01 11:30:44;;;;;;;7.33;2.00;;;;;;;;;;5055252;28;20052;-60
2024/03/01 11:33:11;;;;;;;3.10;1.70;;;;;;;;;;5055844;28;20057;-59
2024/03/01 11:35:36;;;;;;;;;;;;;;;;;;5052697;28;20036;-60
2024/03/01 11:38:01;;;;;;;6.13;1.30;;;;;;;;;;5040549;28;19913;-61
2024/03/01 11:40:30;;;;;;;5.68;1.50;;;;;;;;;;5053823;28;20037;-61
2024/03/01 11:43:04;;;;;;;3.57;1.40;;;;;;;;;;5049269;28;20093;-60
2024/03/01 11:45:35;;;;;;;7.40;1.83;;;;;;;;;;5044307;28;20057;-60
2024/03/01 11:48:03;;;;;;;5.83;1.80;;;;;;;;;;5055354;28;20029;-61
2024/03/01 11:50:44;;;;;;;3.23;1.20;;;;;;;;;;5037750;28;20049;-62
2024/03/01 11:53:19;;;;;;;3.83;1.13;;;;;;;;;;5050990;28;20029;-61
2024/03/01 11:56:03;;;;;;;3.03;1.40;;;;;;;;;;5046092;28;20049;-61
2024/03/01 11:58:35;;;;;;;3.67;1.50;;;;;;;;;;5055109;28;20029;-60
2024/03/01 12:01:13;;;;;;;4.03;1.43;;;;;;;;;;5054188;28;20017;-60
2024/03/01 12:03:54;;;;;;;7.33;1.90;;;;;;;;;;5055657;28;20033;-61
2024/03/01 12:06:22;;;;;;;4.63;1.27;;;;;;;;;;5043421;28;20095;-60
2024/03/01 12:09:13;;;;;;;2.63;1.20;;;;;;;;;;5054038;28;20081;-62
2024/03/01 12:11:57;;;;;;;3.53;1.13;;;;;;;;;;5051752;28;20041;-62
2024/03/01 12:14:30;;;;;;;4.20;1.37;;;;;;;;;;5043081;28;20022;-60
2024/03/01 12:17:01;;;;;;;5.00;1.20;;;;;;;;;;5054202;28;20038;-60
2024/03/01 12:19:31;;;;;;;4.47;1.40;;;;;;;;;;5054825;28;20034;-61
2024/03/01 12:22:15;;;;;;;4.60;1.70;;;;;;;;;;5052959;28;20024;-60
2024/03/01 12:24:42;;;;;;;8.53;1.33;;;;;;;;;;5054310;28;20018;-60
2024/03/01 12:27:12;;;;;;;3.37;1.20;;;;;;;;;;5054135;28;20056;-61
2024/03/01 12:29:47;;;;;;;5.13;1.13;;;;;;;;;;5046097;28;20029;-60
2024/03/01 12:32:15;;;;;;;3.10;1.30;;;;;;;;;;5056656;28;20084;-60
2024/03/01 12:34:52;;;;;;;2.10;1.00;;;;;;;;;;5062608;28;20048;-60
2024/03/01 12:37:17;;;;;;;5.85;1.33;;;;;;;;;;5041997;28;20343;-60
2024/03/01 12:39:44;;;;;;;5.40;1.20;;;;;;;;;;5048778;28;20026;-61
2024/03/01 12:42:22;;;;;;;4.07;1.40;;;;;;;;;;5047526;28;20057;-61
2024/03/01 12:45:05;;;;;;;6.70;1.43;;;;;;;;;;5063203;28;20270;-60
2024/03/01 12:47:46;;;;;;;3.03;1.10;;;;;;;;;;5054637;28;20262;-61
2024/03/01 12:50:15;;;;;;;2.67;1.20;;;;;;;;;;5053965;28;20289;-60
2024/03/01 12:52:40;;;;;;;2.67;1.10;;;;;;;;;;5061940;28;20443;-60
2024/03/01 12:55:12;;;;;;;4.83;1.20;;;;;;;;;;5053983;28;20262;-61
2024/03/01 12:57:53;;;;;;;2.97;1.10;;;;;;;;;;5054212;28;20033;-61
2024/03/01 13:00:23;;;;;;;3.80;1.23;;;;;;;;;;5053424;28;20277;-60
2024/03/01 13:03:00;;;;;;;2.83;1.70;;;;;;;;;;5057553;28;20362;-60
2024/03/01 13:05:36;;;;;;;3.43;1.50;;;;;;;;;;5054303;28;20251;-60
2024/03/01 13:08:03;;;;;;;6.90;1.50;;;;;;;;;;5053475;28;20336;-61
2024/03/01 13:10:29;;;;;;;3.07;1.47;;;;;;;;;;5053852;28;20274;-60
2024/03/01 13:12:56;;;;;;;6.70;1.05;;;;;;;;;;5055404;28;20271;-60
2024/03/01 13:15:23;;;;;;;3.77;1.30;;;;;;;;;;5059558;28;20032;-61
2024/03/01 13:18:00;;;;;;;5.10;1.60;;;;;;;;;;5053910;28;20321;-60
2024/03/01 13:20:51;;;;;;;2.97;1.40;;;;;;;;;;5058920;28;20034;-60
2024/03/01 13:23:23;;;;;;;3.73;1.30;;;;;;;;;;5052612;28;20262;-61
2024/03/01 13:25:54;;;;;;;3.53;1.53;;;;;;;;;;5058599;28;20270;-60
2024/03/01 13:28:25;;;;;;;2.60;1.23;;;;;;;;;;5053861;28;20273;-60
2024/03/01 13:30:53;;;;;;;4.53;1.30;;;;;;;;;;5053042;28;20274;-61
2024/03/01 13:33:39;;;;;;;5.23;2.03;;;;;;;;;;5067876;28;20269;-60
2024/03/01 13:36:10;;;;;;;3.23;1.40;;;;;;;;;;5054744;28;20266;-60
2024/03/01 13:38:54;;;;;;;3.83;1.00;;;;;;;;;;5057662;28;20267;-61
2024/03/01 13:41:21;;;;;;;5.20;1.47;;;;;;;;;;5048681;28;20294;-61
2024/03/01 13:43:53;;;;;;;3.93;0.90;;;;;;;;;;5063035;28;20263;-60
2024/03/01 13:46:27;;;;;;;1.33;0.93;;;;;;;;;;5041268;28;20298;-60
2024/03/01 13:48:55;;;;;;;6.90;1.10;;;;;;;;;;5055541;28;20254;-61
2024/03/01 13:51:21;;;;;;;5.40;1.40;;;;;;;;;;5048573;28;20287;-59
2024/03/01 13:53:46;;;;;;;4.28;0.98;;;;;;;;;;5063762;28;20330;-60
2024/03/01 13:56:12;;;;;;;2.00;0.80;;;;;;;;;;5054736;28;20052;-60
2024/03/01 13:58:39;;;;;;;1.55;0.90;;;;;;;;;;5054628;28;20266;-59
2024/03/01 14:01:05;;;;;;;6.90;0.97;;;;;;;;;;5063503;28;20075;-60
2024/03/01 14:03:31;;;;;;;10.55;1.33;;;;;;;;;;5060298;28;20269;-60
2024/03/01 14:05:58;;;;;;;6.10;1.52;;;;;;;;;;5057349;28;20025;-59
2024/03/01 14:08:25;;;;;;;3.83;1.23;;;;;;;;;;5057424;28;20033;-60
2024/03/01 14:10:55;;;;;;;3.60;0.73;;;;;;;;;;5053211;28;20310;-59
2024/03/01 14:13:26;;;;;;;5.60;0.90;;;;;;;;;;5042805;28;20267;-61
2024/03/01 14:16:00;;;;;;;3.13;1.03;;;;;;;;;;5053962;28;20274;-60
2024/03/01 14:18:26;;;;;;;3.20;1.53;;;;;;;;;;5051001;28;20299;-59
2024/03/01 14:20:52;;;;;;;5.05;0.90;;;;;;;;;;5054284;28;20266;-59
2024/03/01 14:23:17;;;;;;;2.20;0.67;;;;;;;;;;5055357;28;20037;-61
2024/03/01 14:25:43;;;;;;;2.88;1.20;;;;;;;;;;5048221;28;20056;-62
2024/03/01 14:28:08;;;;;;;2.15;1.20;;;;;;;;;;5057218;28;20037;-59
2024/03/01 14:30:34;;;;;;;5.10;0.73;;;;;;;;;;5057161;28;20041;-60
2024/03/01 14:33:09;;;;;;;5.18;1.45;;;;;;;;;;5059495;28;20064;-60
2024/03/01 14:35:35;;;;;;;3.40;1.10;;;;;;;;;;5055009;28;20085;-59
2024/03/01 14:38:09;;;;;;;2.83;0.90;;;;;;;;;;5056919;28;20290;-59
2024/03/01 14:40:34;;;;;;;3.13;0.80;;;;;;;;;;5056398;28;20022;-58
2024/03/01 14:42:59;;;;;;;2.77;1.10;;;;;;;;;;5057277;28;20294;-60